sensor_id;sensor_type;location;lat;lon;timestamp;P1;durP1;ratioP1;P2;durP2;ratioP2
23470;SDS011;11908;50.806;4.424;2022-08-14T00:00:07;4.20;;;1.95;;
23470;SDS011;11908;50.806;4.424;2022-08-14T00:05:01;3.58;;;2.15;;
23470;SDS011;11908;50.806;4.424;2022-08-14T00:07:27;8.52;;;2.25;;
23470;SDS011;11908;50.806;4.424;2022-08-14T00:09:53;7.00;;;2.50;;
23470;SDS011;11908;50.806;4.424;2022-08-14T00:12:19;3.83;;;2.20;;
23470;SDS011;11908;50.806;4.424;2022-08-14T00:14:45;4.40;;;2.47;;
23470;SDS011;11908;50.806;4.424;2022-08-14T00:17:10;3.33;;;2.10;;
23470;SDS011;11908;50.806;4.424;2022-08-14T00:19:36;4.53;;;2.25;;
23470;SDS011;11908;50.806;4.424;2022-08-14T00:22:02;2.58;;;2.28;;
23470;SDS011;11908;50.806;4.424;2022-08-14T00:24:27;4.07;;;2.10;;
23470;SDS011;11908;50.806;4.424;2022-08-14T00:26:53;2.67;;;2.20;;
23470;SDS011;11908;50.806;4.424;2022-08-14T00:29:19;5.18;;;2.50;;
23470;SDS011;11908;50.806;4.424;2022-08-14T00:31:45;3.67;;;2.08;;
23470;SDS011;11908;50.806;4.424;2022-08-14T00:34:10;3.58;;;1.98;;
23470;SDS011;11908;50.806;4.424;2022-08-14T00:36:36;8.90;;;2.05;;
23470;SDS011;11908;50.806;4.424;2022-08-14T00:39:02;5.22;;;2.08;;
23470;SDS011;11908;50.806;4.424;2022-08-14T00:41:29;2.17;;;2.08;;
23470;SDS011;11908;50.806;4.424;2022-08-14T00:43:56;6.72;;;2.40;;
23470;SDS011;11908;50.806;4.424;2022-08-14T00:46:22;6.03;;;2.13;;
23470;SDS011;11908;50.806;4.424;2022-08-14T00:48:48;2.28;;;1.95;;
23470;SDS011;11908;50.806;4.424;2022-08-14T00:51:14;2.20;;;1.98;;
23470;SDS011;11908;50.806;4.424;2022-08-14T00:53:40;5.20;;;2.28;;
23470;SDS011;11908;50.806;4.424;2022-08-14T00:56:06;6.00;;;2.25;;
23470;SDS011;11908;50.806;4.424;2022-08-14T00:58:34;4.88;;;2.00;;
23470;SDS011;11908;50.806;4.424;2022-08-14T01:01:02;4.57;;;2.13;;
23470;SDS011;11908;50.806;4.424;2022-08-14T01:03:33;5.35;;;1.90;;
23470;SDS011;11908;50.806;4.424;2022-08-14T01:06:03;2.92;;;2.00;;
23470;SDS011;11908;50.806;4.424;2022-08-14T01:08:32;3.65;;;2.15;;
23470;SDS011;11908;50.806;4.424;2022-08-14T01:10:59;2.33;;;1.95;;
23470;SDS011;11908;50.806;4.424;2022-08-14T01:13:28;3.92;;;2.20;;
23470;SDS011;11908;50.806;4.424;2022-08-14T01:15:58;4.38;;;2.58;;
23470;SDS011;11908;50.806;4.424;2022-08-14T01:18:27;4.25;;;2.25;;
23470;SDS011;11908;50.806;4.424;2022-08-14T01:21:13;2.55;;;2.08;;
23470;SDS011;11908;50.806;4.424;2022-08-14T01:23:49;4.47;;;2.45;;
23470;SDS011;11908;50.806;4.424;2022-08-14T01:26:18;6.72;;;2.33;;
23470;SDS011;11908;50.806;4.424;2022-08-14T01:28:47;4.13;;;2.90;;
23470;SDS011;11908;50.806;4.424;2022-08-14T01:31:16;3.90;;;2.58;;
23470;SDS011;11908;50.806;4.424;2022-08-14T01:33:43;2.67;;;2.40;;
23470;SDS011;11908;50.806;4.424;2022-08-14T01:36:12;4.85;;;2.30;;
23470;SDS011;11908;50.806;4.424;2022-08-14T01:38:41;4.97;;;2.28;;
23470;SDS011;11908;50.806;4.424;2022-08-14T01:41:11;4.55;;;2.67;;
23470;SDS011;11908;50.806;4.424;2022-08-14T01:43:51;5.28;;;2.53;;
23470;SDS011;11908;50.806;4.424;2022-08-14T01:46:17;2.40;;;2.20;;
23470;SDS011;11908;50.806;4.424;2022-08-14T01:48:44;4.30;;;2.22;;
23470;SDS011;11908;50.806;4.424;2022-08-14T01:51:11;4.43;;;2.83;;
23470;SDS011;11908;50.806;4.424;2022-08-14T01:53:39;3.72;;;2.53;;
23470;SDS011;11908;50.806;4.424;2022-08-14T01:56:08;2.42;;;2.22;;
23470;SDS011;11908;50.806;4.424;2022-08-14T01:58:34;2.72;;;2.40;;
23470;SDS011;11908;50.806;4.424;2022-08-14T02:01:00;4.25;;;2.60;;
23470;SDS011;11908;50.806;4.424;2022-08-14T02:03:29;7.07;;;2.72;;
23470;SDS011;11908;50.806;4.424;2022-08-14T02:06:00;2.95;;;2.53;;
23470;SDS011;11908;50.806;4.424;2022-08-14T02:08:26;4.40;;;2.67;;
23470;SDS011;11908;50.806;4.424;2022-08-14T02:10:55;3.00;;;2.63;;
23470;SDS011;11908;50.806;4.424;2022-08-14T02:13:40;10.60;;;2.92;;
23470;SDS011;11908;50.806;4.424;2022-08-14T02:16:15;3.78;;;2.50;;
23470;SDS011;11908;50.806;4.424;2022-08-14T02:18:42;7.22;;;2.53;;
23470;SDS011;11908;50.806;4.424;2022-08-14T02:21:10;5.00;;;2.60;;
23470;SDS011;11908;50.806;4.424;2022-08-14T02:23:38;3.25;;;2.40;;
23470;SDS011;11908;50.806;4.424;2022-08-14T02:26:13;3.22;;;2.72;;
23470;SDS011;11908;50.806;4.424;2022-08-14T02:28:51;3.08;;;2.78;;
23470;SDS011;11908;50.806;4.424;2022-08-14T02:31:19;4.28;;;2.72;;
23470;SDS011;11908;50.806;4.424;2022-08-14T02:33:45;4.93;;;2.60;;
23470;SDS011;11908;50.806;4.424;2022-08-14T02:36:11;2.63;;;2.42;;
23470;SDS011;11908;50.806;4.424;2022-08-14T02:38:38;3.47;;;2.88;;
23470;SDS011;11908;50.806;4.424;2022-08-14T02:41:07;4.03;;;2.58;;
23470;SDS011;11908;50.806;4.424;2022-08-14T02:43:34;3.05;;;2.75;;
23470;SDS011;11908;50.806;4.424;2022-08-14T02:46:00;4.95;;;2.75;;
23470;SDS011;11908;50.806;4.424;2022-08-14T02:48:27;7.07;;;2.63;;
23470;SDS011;11908;50.806;4.424;2022-08-14T02:50:56;5.25;;;2.92;;
23470;SDS011;11908;50.806;4.424;2022-08-14T02:53:22;4.05;;;2.90;;
23470;SDS011;11908;50.806;4.424;2022-08-14T02:55:48;7.20;;;2.92;;
23470;SDS011;11908;50.806;4.424;2022-08-14T02:58:14;7.32;;;2.97;;
23470;SDS011;11908;50.806;4.424;2022-08-14T03:00:40;3.95;;;2.50;;
23470;SDS011;11908;50.806;4.424;2022-08-14T03:03:07;3.33;;;2.83;;
23470;SDS011;11908;50.806;4.424;2022-08-14T03:05:32;3.55;;;2.72;;
23470;SDS011;11908;50.806;4.424;2022-08-14T03:08:12;3.45;;;2.85;;
23470;SDS011;11908;50.806;4.424;2022-08-14T03:10:38;4.20;;;2.90;;
23470;SDS011;11908;50.806;4.424;2022-08-14T03:13:04;6.72;;;3.20;;
23470;SDS011;11908;50.806;4.424;2022-08-14T03:15:33;5.85;;;3.40;;
23470;SDS011;11908;50.806;4.424;2022-08-14T03:18:03;8.68;;;3.05;;
23470;SDS011;11908;50.806;4.424;2022-08-14T03:20:33;5.25;;;2.80;;
23470;SDS011;11908;50.806;4.424;2022-08-14T03:22:59;2.72;;;2.53;;
23470;SDS011;11908;50.806;4.424;2022-08-14T03:25:26;3.47;;;2.85;;
23470;SDS011;11908;50.806;4.424;2022-08-14T03:27:55;5.97;;;2.65;;
23470;SDS011;11908;50.806;4.424;2022-08-14T03:30:20;3.67;;;3.35;;
23470;SDS011;11908;50.806;4.424;2022-08-14T03:32:47;3.25;;;2.95;;
23470;SDS011;11908;50.806;4.424;2022-08-14T03:35:12;3.22;;;2.92;;
23470;SDS011;11908;50.806;4.424;2022-08-14T03:37:38;5.15;;;3.00;;
23470;SDS011;11908;50.806;4.424;2022-08-14T03:40:05;4.65;;;3.00;;
23470;SDS011;11908;50.806;4.424;2022-08-14T03:42:31;5.18;;;3.13;;
23470;SDS011;11908;50.806;4.424;2022-08-14T03:44:59;5.18;;;2.78;;
23470;SDS011;11908;50.806;4.424;2022-08-14T03:47:25;4.47;;;2.95;;
23470;SDS011;11908;50.806;4.424;2022-08-14T03:49:50;3.47;;;2.65;;
23470;SDS011;11908;50.806;4.424;2022-08-14T03:52:16;7.07;;;3.05;;
23470;SDS011;11908;50.806;4.424;2022-08-14T03:54:42;4.32;;;3.38;;
23470;SDS011;11908;50.806;4.424;2022-08-14T03:57:10;4.25;;;3.30;;
23470;SDS011;11908;50.806;4.424;2022-08-14T03:59:36;4.25;;;3.20;;
23470;SDS011;11908;50.806;4.424;2022-08-14T04:02:02;3.40;;;3.08;;
23470;SDS011;11908;50.806;4.424;2022-08-14T04:04:28;5.15;;;3.15;;
23470;SDS011;11908;50.806;4.424;2022-08-14T04:06:55;6.72;;;3.00;;
23470;SDS011;11908;50.806;4.424;2022-08-14T04:09:20;4.45;;;3.13;;
23470;SDS011;11908;50.806;4.424;2022-08-14T04:11:46;3.50;;;3.20;;
23470;SDS011;11908;50.806;4.424;2022-08-14T04:14:12;6.85;;;3.20;;
23470;SDS011;11908;50.806;4.424;2022-08-14T04:16:38;3.53;;;3.00;;
23470;SDS011;11908;50.806;4.424;2022-08-14T04:19:06;5.82;;;3.42;;
23470;SDS011;11908;50.806;4.424;2022-08-14T04:21:34;4.78;;;3.00;;
23470;SDS011;11908;50.806;4.424;2022-08-14T04:24:00;6.28;;;3.38;;
23470;SDS011;11908;50.806;4.424;2022-08-14T04:26:26;6.25;;;3.20;;
23470;SDS011;11908;50.806;4.424;2022-08-14T04:28:54;4.32;;;3.10;;
23470;SDS011;11908;50.806;4.424;2022-08-14T04:31:20;4.80;;;2.90;;
23470;SDS011;11908;50.806;4.424;2022-08-14T04:33:47;5.05;;;2.97;;
23470;SDS011;11908;50.806;4.424;2022-08-14T04:36:13;5.25;;;3.35;;
23470;SDS011;11908;50.806;4.424;2022-08-14T04:38:39;8.48;;;3.05;;
23470;SDS011;11908;50.806;4.424;2022-08-14T04:41:23;4.70;;;3.05;;
23470;SDS011;11908;50.806;4.424;2022-08-14T04:44:08;4.22;;;3.33;;
23470;SDS011;11908;50.806;4.424;2022-08-14T04:46:34;8.90;;;3.60;;
23470;SDS011;11908;50.806;4.424;2022-08-14T04:49:00;4.75;;;3.35;;
23470;SDS011;11908;50.806;4.424;2022-08-14T04:51:26;5.05;;;3.40;;
23470;SDS011;11908;50.806;4.424;2022-08-14T04:53:53;3.22;;;2.72;;
23470;SDS011;11908;50.806;4.424;2022-08-14T04:56:21;5.97;;;2.72;;
23470;SDS011;11908;50.806;4.424;2022-08-14T04:58:49;3.88;;;2.53;;
23470;SDS011;11908;50.806;4.424;2022-08-14T05:01:20;3.60;;;2.55;;
23470;SDS011;11908;50.806;4.424;2022-08-14T05:03:46;4.15;;;2.30;;
23470;SDS011;11908;50.806;4.424;2022-08-14T05:06:11;5.68;;;2.85;;
23470;SDS011;11908;50.806;4.424;2022-08-14T05:08:38;5.35;;;2.75;;
23470;SDS011;11908;50.806;4.424;2022-08-14T05:11:05;4.78;;;2.40;;
23470;SDS011;11908;50.806;4.424;2022-08-14T05:13:32;2.63;;;2.15;;
23470;SDS011;11908;50.806;4.424;2022-08-14T05:15:59;4.88;;;2.25;;
23470;SDS011;11908;50.806;4.424;2022-08-14T05:18:26;3.95;;;1.85;;
23470;SDS011;11908;50.806;4.424;2022-08-14T05:20:56;3.88;;;2.25;;
23470;SDS011;11908;50.806;4.424;2022-08-14T05:23:23;2.40;;;2.17;;
23470;SDS011;11908;50.806;4.424;2022-08-14T05:25:52;4.65;;;2.30;;
23470;SDS011;11908;50.806;4.424;2022-08-14T05:28:21;5.75;;;2.22;;
23470;SDS011;11908;50.806;4.424;2022-08-14T05:30:51;2.08;;;1.80;;
23470;SDS011;11908;50.806;4.424;2022-08-14T05:33:24;3.80;;;2.08;;
23470;SDS011;11908;50.806;4.424;2022-08-14T05:35:53;5.78;;;2.28;;
23470;SDS011;11908;50.806;4.424;2022-08-14T05:38:26;2.50;;;2.17;;
23470;SDS011;11908;50.806;4.424;2022-08-14T05:40:54;1.77;;;1.58;;
23470;SDS011;11908;50.806;4.424;2022-08-14T05:43:21;3.67;;;1.33;;
23470;SDS011;11908;50.806;4.424;2022-08-14T05:45:47;3.88;;;1.40;;
23470;SDS011;11908;50.806;4.424;2022-08-14T05:48:13;3.60;;;1.77;;
23470;SDS011;11908;50.806;4.424;2022-08-14T05:50:42;1.77;;;1.67;;
23470;SDS011;11908;50.806;4.424;2022-08-14T05:53:07;1.60;;;1.50;;
23470;SDS011;11908;50.806;4.424;2022-08-14T05:55:33;4.25;;;1.65;;
23470;SDS011;11908;50.806;4.424;2022-08-14T05:58:00;4.38;;;1.83;;
23470;SDS011;11908;50.806;4.424;2022-08-14T06:00:28;3.92;;;1.55;;
23470;SDS011;11908;50.806;4.424;2022-08-14T06:02:56;6.53;;;1.60;;
23470;SDS011;11908;50.806;4.424;2022-08-14T06:05:22;2.30;;;1.80;;
23470;SDS011;11908;50.806;4.424;2022-08-14T06:07:49;3.55;;;2.00;;
23470;SDS011;11908;50.806;4.424;2022-08-14T06:10:15;5.43;;;2.10;;
23470;SDS011;11908;50.806;4.424;2022-08-14T06:12:41;6.88;;;2.00;;
23470;SDS011;11908;50.806;4.424;2022-08-14T06:15:07;9.80;;;1.95;;
23470;SDS011;11908;50.806;4.424;2022-08-14T06:17:50;6.70;;;2.20;;
23470;SDS011;11908;50.806;4.424;2022-08-14T06:20:17;3.15;;;1.75;;
23470;SDS011;11908;50.806;4.424;2022-08-14T06:22:44;5.38;;;2.03;;
23470;SDS011;11908;50.806;4.424;2022-08-14T06:25:11;5.38;;;2.30;;
23470;SDS011;11908;50.806;4.424;2022-08-14T06:27:42;4.18;;;2.05;;
23470;SDS011;11908;50.806;4.424;2022-08-14T06:30:12;9.50;;;2.20;;
23470;SDS011;11908;50.806;4.424;2022-08-14T06:32:43;4.85;;;2.03;;
23470;SDS011;11908;50.806;4.424;2022-08-14T06:35:10;2.83;;;2.38;;
23470;SDS011;11908;50.806;4.424;2022-08-14T06:37:42;5.25;;;2.50;;
23470;SDS011;11908;50.806;4.424;2022-08-14T06:40:13;4.00;;;2.33;;
23470;SDS011;11908;50.806;4.424;2022-08-14T06:42:40;5.20;;;2.58;;
23470;SDS011;11908;50.806;4.424;2022-08-14T06:45:07;3.45;;;2.60;;
23470;SDS011;11908;50.806;4.424;2022-08-14T06:47:34;5.70;;;2.78;;
23470;SDS011;11908;50.806;4.424;2022-08-14T06:50:01;3.28;;;2.50;;
23470;SDS011;11908;50.806;4.424;2022-08-14T06:52:28;5.53;;;2.53;;
23470;SDS011;11908;50.806;4.424;2022-08-14T06:54:54;5.60;;;3.10;;
23470;SDS011;11908;50.806;4.424;2022-08-14T06:57:21;8.07;;;3.38;;
23470;SDS011;11908;50.806;4.424;2022-08-14T06:59:47;8.80;;;2.90;;
23470;SDS011;11908;50.806;4.424;2022-08-14T07:02:13;3.80;;;2.78;;
23470;SDS011;11908;50.806;4.424;2022-08-14T07:04:57;4.15;;;2.53;;
23470;SDS011;11908;50.806;4.424;2022-08-14T07:07:41;3.60;;;2.75;;
23470;SDS011;11908;50.806;4.424;2022-08-14T07:10:08;5.13;;;2.70;;
23470;SDS011;11908;50.806;4.424;2022-08-14T07:12:34;4.03;;;2.33;;
23470;SDS011;11908;50.806;4.424;2022-08-14T07:15:00;4.43;;;2.45;;
23470;SDS011;11908;50.806;4.424;2022-08-14T07:17:26;6.00;;;2.58;;
23470;SDS011;11908;50.806;4.424;2022-08-14T07:19:51;3.60;;;2.40;;
23470;SDS011;11908;50.806;4.424;2022-08-14T07:22:17;6.97;;;3.00;;
23470;SDS011;11908;50.806;4.424;2022-08-14T07:24:43;7.95;;;2.30;;
23470;SDS011;11908;50.806;4.424;2022-08-14T07:27:08;3.38;;;2.33;;
23470;SDS011;11908;50.806;4.424;2022-08-14T07:29:34;4.32;;;2.35;;
23470;SDS011;11908;50.806;4.424;2022-08-14T07:32:00;3.22;;;2.00;;
23470;SDS011;11908;50.806;4.424;2022-08-14T07:34:25;5.22;;;2.20;;
23470;SDS011;11908;50.806;4.424;2022-08-14T07:36:51;4.93;;;2.13;;
23470;SDS011;11908;50.806;4.424;2022-08-14T07:39:18;6.72;;;1.90;;
23470;SDS011;11908;50.806;4.424;2022-08-14T07:41:44;1.90;;;1.80;;
23470;SDS011;11908;50.806;4.424;2022-08-14T07:44:10;10.30;;;2.20;;
23470;SDS011;11908;50.806;4.424;2022-08-14T07:46:35;3.50;;;1.95;;
23470;SDS011;11908;50.806;4.424;2022-08-14T07:49:02;4.40;;;2.13;;
23470;SDS011;11908;50.806;4.424;2022-08-14T07:51:28;2.72;;;1.92;;
23470;SDS011;11908;50.806;4.424;2022-08-14T07:53:54;5.43;;;1.90;;
23470;SDS011;11908;50.806;4.424;2022-08-14T07:56:21;3.55;;;1.70;;
23470;SDS011;11908;50.806;4.424;2022-08-14T07:58:47;4.25;;;1.85;;
23470;SDS011;11908;50.806;4.424;2022-08-14T08:01:13;2.25;;;1.95;;
23470;SDS011;11908;50.806;4.424;2022-08-14T08:03:41;4.22;;;1.65;;
23470;SDS011;11908;50.806;4.424;2022-08-14T08:06:10;2.00;;;1.80;;
23470;SDS011;11908;50.806;4.424;2022-08-14T08:08:36;3.13;;;1.90;;
23470;SDS011;11908;50.806;4.424;2022-08-14T08:11:02;8.02;;;1.80;;
23470;SDS011;11908;50.806;4.424;2022-08-14T08:13:30;1.83;;;1.70;;
23470;SDS011;11908;50.806;4.424;2022-08-14T08:15:58;2.33;;;1.80;;
23470;SDS011;11908;50.806;4.424;2022-08-14T08:18:25;3.10;;;1.80;;
23470;SDS011;11908;50.806;4.424;2022-08-14T08:20:53;4.85;;;1.73;;
23470;SDS011;11908;50.806;4.424;2022-08-14T08:23:20;2.88;;;1.52;;
23470;SDS011;11908;50.806;4.424;2022-08-14T08:25:48;3.53;;;2.00;;
23470;SDS011;11908;50.806;4.424;2022-08-14T08:28:16;2.85;;;1.52;;
23470;SDS011;11908;50.806;4.424;2022-08-14T08:30:50;1.95;;;1.52;;
23470;SDS011;11908;50.806;4.424;2022-08-14T08:33:19;1.65;;;1.30;;
23470;SDS011;11908;50.806;4.424;2022-08-14T08:35:47;1.70;;;1.60;;
23470;SDS011;11908;50.806;4.424;2022-08-14T08:38:14;1.98;;;1.70;;
23470;SDS011;11908;50.806;4.424;2022-08-14T08:40:45;3.55;;;1.67;;
23470;SDS011;11908;50.806;4.424;2022-08-14T08:43:26;4.18;;;1.80;;
23470;SDS011;11908;50.806;4.424;2022-08-14T08:46:03;6.18;;;1.83;;
23470;SDS011;11908;50.806;4.424;2022-08-14T08:51:08;3.55;;;1.90;;
23470;SDS011;11908;50.806;4.424;2022-08-14T08:53:43;4.00;;;1.85;;
23470;SDS011;11908;50.806;4.424;2022-08-14T08:56:09;2.97;;;1.58;;
23470;SDS011;11908;50.806;4.424;2022-08-14T08:58:36;4.57;;;1.98;;
23470;SDS011;11908;50.806;4.424;2022-08-14T09:01:02;3.33;;;2.08;;
23470;SDS011;11908;50.806;4.424;2022-08-14T09:03:28;3.47;;;1.90;;
23470;SDS011;11908;50.806;4.424;2022-08-14T09:05:58;4.63;;;1.70;;
23470;SDS011;11908;50.806;4.424;2022-08-14T09:08:30;3.63;;;1.90;;
23470;SDS011;11908;50.806;4.424;2022-08-14T09:10:57;4.00;;;2.08;;
23470;SDS011;11908;50.806;4.424;2022-08-14T09:13:24;3.53;;;2.22;;
23470;SDS011;11908;50.806;4.424;2022-08-14T09:15:50;5.05;;;2.20;;
23470;SDS011;11908;50.806;4.424;2022-08-14T09:18:18;3.97;;;1.77;;
23470;SDS011;11908;50.806;4.424;2022-08-14T09:20:46;2.30;;;2.10;;
23470;SDS011;11908;50.806;4.424;2022-08-14T09:23:14;2.50;;;1.85;;
23470;SDS011;11908;50.806;4.424;2022-08-14T09:25:40;3.88;;;2.13;;
23470;SDS011;11908;50.806;4.424;2022-08-14T09:28:08;2.80;;;2.40;;
23470;SDS011;11908;50.806;4.424;2022-08-14T09:30:39;2.97;;;2.08;;
23470;SDS011;11908;50.806;4.424;2022-08-14T09:33:14;2.38;;;2.08;;
23470;SDS011;11908;50.806;4.424;2022-08-14T09:36:02;3.95;;;2.30;;
23470;SDS011;11908;50.806;4.424;2022-08-14T09:47:09;3.92;;;1.88;;
23470;SDS011;11908;50.806;4.424;2022-08-14T09:49:38;4.35;;;2.40;;
23470;SDS011;11908;50.806;4.424;2022-08-14T09:52:06;2.67;;;2.28;;
23470;SDS011;11908;50.806;4.424;2022-08-14T09:54:35;4.55;;;2.20;;
23470;SDS011;11908;50.806;4.424;2022-08-14T09:57:02;3.15;;;2.20;;
23470;SDS011;11908;50.806;4.424;2022-08-14T09:59:39;2.58;;;2.38;;
23470;SDS011;11908;50.806;4.424;2022-08-14T10:02:18;3.08;;;1.98;;
23470;SDS011;11908;50.806;4.424;2022-08-14T10:04:57;4.38;;;1.88;;
23470;SDS011;11908;50.806;4.424;2022-08-14T10:07:34;4.37;;;2.27;;
23470;SDS011;11908;50.806;4.424;2022-08-14T10:10:27;2.65;;;1.63;;
23470;SDS011;11908;50.806;4.424;2022-08-14T10:12:56;3.17;;;1.35;;
23470;SDS011;11908;50.806;4.424;2022-08-14T10:15:23;8.13;;;1.77;;
23470;SDS011;11908;50.806;4.424;2022-08-14T10:18:10;1.80;;;1.65;;
23470;SDS011;11908;50.806;4.424;2022-08-14T10:20:42;3.75;;;1.70;;
23470;SDS011;11908;50.806;4.424;2022-08-14T10:23:20;4.82;;;1.92;;
23470;SDS011;11908;50.806;4.424;2022-08-14T10:25:48;5.13;;;1.55;;
23470;SDS011;11908;50.806;4.424;2022-08-14T10:28:16;2.33;;;1.42;;
23470;SDS011;11908;50.806;4.424;2022-08-14T10:30:47;1.67;;;1.45;;
23470;SDS011;11908;50.806;4.424;2022-08-14T10:33:30;1.83;;;1.60;;
23470;SDS011;11908;50.806;4.424;2022-08-14T10:35:57;3.25;;;1.50;;
23470;SDS011;11908;50.806;4.424;2022-08-14T10:41:10;1.98;;;1.23;;
23470;SDS011;11908;50.806;4.424;2022-08-14T10:43:41;3.83;;;1.40;;
23470;SDS011;11908;50.806;4.424;2022-08-14T10:46:13;1.58;;;1.20;;
23470;SDS011;11908;50.806;4.424;2022-08-14T10:48:41;1.75;;;1.48;;
23470;SDS011;11908;50.806;4.424;2022-08-14T10:51:28;3.33;;;1.40;;
23470;SDS011;11908;50.806;4.424;2022-08-14T10:53:55;1.63;;;1.30;;
23470;SDS011;11908;50.806;4.424;2022-08-14T10:56:31;1.98;;;1.20;;
23470;SDS011;11908;50.806;4.424;2022-08-14T10:59:08;2.90;;;1.25;;
23470;SDS011;11908;50.806;4.424;2022-08-14T11:01:35;1.98;;;1.10;;
23470;SDS011;11908;50.806;4.424;2022-08-14T11:04:02;1.58;;;1.17;;
23470;SDS011;11908;50.806;4.424;2022-08-14T11:06:28;3.90;;;1.38;;
23470;SDS011;11908;50.806;4.424;2022-08-14T11:08:55;2.40;;;1.00;;
23470;SDS011;11908;50.806;4.424;2022-08-14T11:11:22;2.10;;;1.10;;
23470;SDS011;11908;50.806;4.424;2022-08-14T11:13:54;1.35;;;1.10;;
23470;SDS011;11908;50.806;4.424;2022-08-14T11:16:21;1.75;;;0.98;;
23470;SDS011;11908;50.806;4.424;2022-08-14T11:18:48;5.40;;;1.20;;
23470;SDS011;11908;50.806;4.424;2022-08-14T11:21:17;1.65;;;1.00;;
23470;SDS011;11908;50.806;4.424;2022-08-14T11:23:46;4.20;;;1.23;;
23470;SDS011;11908;50.806;4.424;2022-08-14T11:26:14;4.57;;;1.05;;
23470;SDS011;11908;50.806;4.424;2022-08-14T11:28:45;1.77;;;1.00;;
23470;SDS011;11908;50.806;4.424;2022-08-14T11:31:13;3.92;;;1.23;;
23470;SDS011;11908;50.806;4.424;2022-08-14T11:33:40;5.35;;;1.30;;
23470;SDS011;11908;50.806;4.424;2022-08-14T11:36:07;4.82;;;1.48;;
23470;SDS011;11908;50.806;4.424;2022-08-14T11:38:43;1.77;;;1.10;;
23470;SDS011;11908;50.806;4.424;2022-08-14T11:41:10;2.03;;;0.98;;
23470;SDS011;11908;50.806;4.424;2022-08-14T11:43:40;3.75;;;1.10;;
23470;SDS011;11908;50.806;4.424;2022-08-14T11:46:10;1.88;;;1.10;;
23470;SDS011;11908;50.806;4.424;2022-08-14T11:48:47;1.60;;;1.00;;
23470;SDS011;11908;50.806;4.424;2022-08-14T11:51:15;1.58;;;0.88;;
23470;SDS011;11908;50.806;4.424;2022-08-14T11:53:51;3.78;;;1.02;;
23470;SDS011;11908;50.806;4.424;2022-08-14T11:56:19;6.65;;;1.25;;
23470;SDS011;11908;50.806;4.424;2022-08-14T11:58:48;1.88;;;1.08;;
23470;SDS011;11908;50.806;4.424;2022-08-14T12:01:17;1.98;;;1.13;;
23470;SDS011;11908;50.806;4.424;2022-08-14T12:03:51;3.05;;;1.00;;
23470;SDS011;11908;50.806;4.424;2022-08-14T12:06:17;4.65;;;1.38;;
23470;SDS011;11908;50.806;4.424;2022-08-14T12:08:44;0.82;;;0.75;;
23470;SDS011;11908;50.806;4.424;2022-08-14T12:11:11;2.30;;;1.13;;
23470;SDS011;11908;50.806;4.424;2022-08-14T12:13:39;1.70;;;0.93;;
23470;SDS011;11908;50.806;4.424;2022-08-14T12:16:07;5.30;;;1.00;;
23470;SDS011;11908;50.806;4.424;2022-08-14T12:18:35;1.80;;;1.05;;
23470;SDS011;11908;50.806;4.424;2022-08-14T12:21:22;3.25;;;1.00;;
23470;SDS011;11908;50.806;4.424;2022-08-14T12:26:27;1.38;;;1.13;;
23470;SDS011;11908;50.806;4.424;2022-08-14T12:29:03;1.67;;;1.20;;
23470;SDS011;11908;50.806;4.424;2022-08-14T12:31:33;1.00;;;0.90;;
23470;SDS011;11908;50.806;4.424;2022-08-14T12:34:01;1.15;;;1.00;;
23470;SDS011;11908;50.806;4.424;2022-08-14T12:36:28;1.13;;;0.90;;
23470;SDS011;11908;50.806;4.424;2022-08-14T12:38:57;4.13;;;0.95;;
23470;SDS011;11908;50.806;4.424;2022-08-14T12:41:31;3.63;;;1.00;;
23470;SDS011;11908;50.806;4.424;2022-08-14T12:44:02;4.43;;;1.25;;
23470;SDS011;11908;50.806;4.424;2022-08-14T12:49:07;1.40;;;1.30;;
23470;SDS011;11908;50.806;4.424;2022-08-14T12:51:35;2.00;;;0.93;;
23470;SDS011;11908;50.806;4.424;2022-08-14T12:54:10;3.03;;;1.25;;
23470;SDS011;11908;50.806;4.424;2022-08-14T12:56:38;1.42;;;1.20;;
23470;SDS011;11908;50.806;4.424;2022-08-14T12:59:04;3.00;;;1.10;;
23470;SDS011;11908;50.806;4.424;2022-08-14T13:01:30;1.33;;;1.10;;
23470;SDS011;11908;50.806;4.424;2022-08-14T13:04:05;1.02;;;1.02;;
23470;SDS011;11908;50.806;4.424;2022-08-14T13:06:38;1.60;;;1.00;;
23470;SDS011;11908;50.806;4.424;2022-08-14T13:09:06;5.32;;;1.33;;
23470;SDS011;11908;50.806;4.424;2022-08-14T13:11:38;1.13;;;1.05;;
23470;SDS011;11908;50.806;4.424;2022-08-14T13:14:09;5.47;;;1.30;;
23470;SDS011;11908;50.806;4.424;2022-08-14T13:16:38;4.43;;;1.10;;
23470;SDS011;11908;50.806;4.424;2022-08-14T13:19:12;2.63;;;1.00;;
23470;SDS011;11908;50.806;4.424;2022-08-14T13:21:40;1.85;;;1.30;;
23470;SDS011;11908;50.806;4.424;2022-08-14T13:24:07;1.65;;;1.20;;
23470;SDS011;11908;50.806;4.424;2022-08-14T13:26:36;1.75;;;1.20;;
23470;SDS011;11908;50.806;4.424;2022-08-14T13:29:09;4.10;;;1.15;;
23470;SDS011;11908;50.806;4.424;2022-08-14T13:31:38;2.35;;;1.40;;
23470;SDS011;11908;50.806;4.424;2022-08-14T13:34:11;1.13;;;1.02;;
23470;SDS011;11908;50.806;4.424;2022-08-14T13:36:37;3.15;;;1.17;;
23470;SDS011;11908;50.806;4.424;2022-08-14T13:39:04;2.10;;;1.30;;
23470;SDS011;11908;50.806;4.424;2022-08-14T13:41:30;3.53;;;1.27;;
23470;SDS011;11908;50.806;4.424;2022-08-14T13:43:57;3.10;;;1.10;;
23470;SDS011;11908;50.806;4.424;2022-08-14T13:46:24;1.60;;;0.90;;
23470;SDS011;11908;50.806;4.424;2022-08-14T13:48:50;3.17;;;1.10;;
23470;SDS011;11908;50.806;4.424;2022-08-14T13:51:16;1.60;;;1.40;;
23470;SDS011;11908;50.806;4.424;2022-08-14T13:53:46;7.20;;;1.30;;
23470;SDS011;11908;50.806;4.424;2022-08-14T13:56:13;4.00;;;1.75;;
23470;SDS011;11908;50.806;4.424;2022-08-14T13:58:43;2.75;;;1.20;;
23470;SDS011;11908;50.806;4.424;2022-08-14T14:01:11;2.13;;;1.20;;
23470;SDS011;11908;50.806;4.424;2022-08-14T14:03:42;4.57;;;1.27;;
23470;SDS011;11908;50.806;4.424;2022-08-14T14:06:14;4.53;;;1.30;;
23470;SDS011;11908;50.806;4.424;2022-08-14T14:08:52;2.45;;;1.30;;
23470;SDS011;11908;50.806;4.424;2022-08-14T14:11:20;3.00;;;1.40;;
23470;SDS011;11908;50.806;4.424;2022-08-14T14:13:49;1.67;;;1.25;;
23470;SDS011;11908;50.806;4.424;2022-08-14T14:16:15;3.35;;;1.10;;
23470;SDS011;11908;50.806;4.424;2022-08-14T14:18:51;1.73;;;1.20;;
23470;SDS011;11908;50.806;4.424;2022-08-14T14:21:25;3.30;;;1.13;;
23470;SDS011;11908;50.806;4.424;2022-08-14T14:23:51;1.42;;;1.30;;
23470;SDS011;11908;50.806;4.424;2022-08-14T14:26:17;2.03;;;1.25;;
23470;SDS011;11908;50.806;4.424;2022-08-14T14:28:48;3.15;;;1.45;;
23470;SDS011;11908;50.806;4.424;2022-08-14T14:31:19;3.30;;;1.30;;
23470;SDS011;11908;50.806;4.424;2022-08-14T14:33:48;9.07;;;1.50;;
23470;SDS011;11908;50.806;4.424;2022-08-14T14:36:19;2.97;;;1.23;;
23470;SDS011;11908;50.806;4.424;2022-08-14T14:38:58;3.28;;;1.13;;
23470;SDS011;11908;50.806;4.424;2022-08-14T14:41:27;2.78;;;1.70;;
23470;SDS011;11908;50.806;4.424;2022-08-14T14:43:54;4.10;;;1.30;;
23470;SDS011;11908;50.806;4.424;2022-08-14T14:46:23;2.28;;;1.20;;
23470;SDS011;11908;50.806;4.424;2022-08-14T14:48:50;1.60;;;1.10;;
23470;SDS011;11908;50.806;4.424;2022-08-14T14:51:17;1.92;;;1.27;;
23470;SDS011;11908;50.806;4.424;2022-08-14T14:53:43;2.22;;;1.52;;
23470;SDS011;11908;50.806;4.424;2022-08-14T14:56:10;1.77;;;1.35;;
23470;SDS011;11908;50.806;4.424;2022-08-14T14:58:37;1.35;;;1.25;;
23470;SDS011;11908;50.806;4.424;2022-08-14T15:01:06;2.92;;;1.30;;
23470;SDS011;11908;50.806;4.424;2022-08-14T15:03:34;1.85;;;1.25;;
23470;SDS011;11908;50.806;4.424;2022-08-14T15:06:02;7.40;;;1.33;;
23470;SDS011;11908;50.806;4.424;2022-08-14T15:08:28;1.73;;;1.48;;
23470;SDS011;11908;50.806;4.424;2022-08-14T15:10:55;2.08;;;1.40;;
23470;SDS011;11908;50.806;4.424;2022-08-14T15:13:21;5.55;;;1.30;;
23470;SDS011;11908;50.806;4.424;2022-08-14T15:15:47;2.92;;;1.60;;
23470;SDS011;11908;50.806;4.424;2022-08-14T15:18:13;3.75;;;1.30;;